Time;durP1;ratioP1;P1;durP2;ratioP2;P2;SDS_P1;SDS_P2;PMS_P1;PMS_P2;Temp;Humidity;BMP_temperature;BMP_pressure;BME280_temperature;BME280_humidity;BME280_pressure;Samples;Min_cycle;Max_cycle;Signal;HPM_P1;HPM_P2
2022/07/03 00:01:28;;;;;;;;;0.00;0.00;;;;;;;;5103172;27;45477;-75
2022/07/03 00:03:53;;;;;;;;;0.00;0.00;;;;;;;;5097159;27;45299;-75
2022/07/03 00:06:18;;;;;;;;;0.33;0.00;;;;;;;;5094389;27;46572;-75
2022/07/03 00:08:44;;;;;;;;;0.00;0.00;;;;;;;;5094692;27;45269;-75
2022/07/03 00:11:09;;;;;;;;;0.00;0.00;;;;;;;;5095584;27;45282;-75
2022/07/03 00:13:34;;;;;;;;;1.00;1.00;;;;;;;;5098435;27;45379;-75
2022/07/03 00:16:00;;;;;;;;;0.00;0.00;;;;;;;;5094108;27;47562;-75
2022/07/03 00:18:25;;;;;;;;;0.00;0.00;;;;;;;;5094338;27;45329;-75
2022/07/03 00:20:57;;;;;;;;;0.00;0.00;;;;;;;;5094700;27;45525;-75
2022/07/03 00:23:23;;;;;;;;;0.00;0.00;;;;;;;;5094440;27;45294;-75
2022/07/03 00:25:49;;;;;;;;;1.67;0.67;;;;;;;;5097168;27;47234;-75
2022/07/03 00:28:14;;;;;;;;;1.33;1.00;;;;;;;;5090605;27;45420;-75
2022/07/03 00:30:40;;;;;;;;;0.00;0.00;;;;;;;;5094341;27;45459;-75
2022/07/03 00:33:06;;;;;;;;;0.00;0.00;;;;;;;;5094423;27;45338;-75
2022/07/03 00:35:32;;;;;;;;;0.00;0.00;;;;;;;;5094068;27;47262;-75
2022/07/03 00:37:58;;;;;;;;;1.33;1.00;;;;;;;;5096464;27;45395;-75
2022/07/03 00:40:23;;;;;;;;;0.00;0.00;;;;;;;;5095267;27;47398;-75
2022/07/03 00:42:49;;;;;;;;;1.33;0.00;;;;;;;;5093921;27;45497;-75
2022/07/03 00:45:15;;;;;;;;;1.00;1.00;;;;;;;;5094046;27;45439;-76
2022/07/03 00:47:42;;;;;;;;;0.00;0.00;;;;;;;;5094147;27;45429;-75
2022/07/03 00:50:08;;;;;;;;;1.00;1.00;;;;;;;;5095132;27;45536;-75
2022/07/03 00:52:33;;;;;;;;;0.67;0.67;;;;;;;;5096265;27;45281;-76
2022/07/03 00:55:00;;;;;;;;;0.00;0.00;;;;;;;;5093356;27;45466;-75
2022/07/03 00:57:27;;;;;;;;;0.00;0.00;;;;;;;;5093923;27;45525;-75
2022/07/03 00:59:52;;;;;;;;;0.00;0.00;;;;;;;;5095396;27;45499;-75
2022/07/03 01:02:30;;;;;;;;;0.00;0.00;;;;;;;;5103508;27;45370;-75
2022/07/03 01:05:21;;;;;;;;;0.00;0.00;;;;;;;;5096301;27;45522;-76
2022/07/03 01:07:47;;;;;;;;;0.00;0.00;;;;;;;;5050027;28;45345;-76
2022/07/03 01:10:17;;;;;;;;;2.00;0.33;;;;;;;;5046373;28;45398;-76
2022/07/03 01:12:55;;;;;;;;;2.00;0.00;;;;;;;;5051845;28;45608;-76
2022/07/03 01:15:21;;;;;;;;;0.00;0.00;;;;;;;;5045419;28;46074;-75
2022/07/03 01:17:52;;;;;;;;;0.00;0.00;;;;;;;;5046257;28;45755;-75
2022/07/03 01:20:20;;;;;;;;;0.00;0.00;;;;;;;;5050456;28;45341;-75
2022/07/03 01:22:53;;;;;;;;;0.00;0.00;;;;;;;;5049565;28;45515;-75
2022/07/03 01:25:22;;;;;;;;;0.00;0.00;;;;;;;;5053053;28;45573;-74
2022/07/03 01:27:47;;;;;;;;;1.33;0.67;;;;;;;;5046016;28;45364;-75
2022/07/03 01:30:12;;;;;;;;;0.00;0.00;;;;;;;;5046135;28;45490;-75
2022/07/03 01:32:41;;;;;;;;;0.00;0.00;;;;;;;;5051532;28;45544;-75
2022/07/03 01:35:07;;;;;;;;;1.00;1.00;;;;;;;;5052917;28;47123;-75
2022/07/03 01:37:34;;;;;;;;;1.00;1.00;;;;;;;;5053994;28;45513;-75
2022/07/03 01:40:01;;;;;;;;;0.00;0.00;;;;;;;;5051643;28;45438;-75
2022/07/03 01:42:28;;;;;;;;;0.00;0.00;;;;;;;;5045500;28;45650;-75
2022/07/03 01:44:54;;;;;;;;;0.00;0.00;;;;;;;;5066257;27;46290;-76
2022/07/03 01:47:21;;;;;;;;;0.00;0.00;;;;;;;;5092875;27;45551;-75
2022/07/03 01:49:48;;;;;;;;;1.00;1.00;;;;;;;;5096446;27;45223;-75
2022/07/03 01:52:14;;;;;;;;;0.00;0.00;;;;;;;;5094629;27;45581;-75
2022/07/03 01:54:42;;;;;;;;;0.00;0.00;;;;;;;;5091969;27;45491;-76
2022/07/03 01:57:07;;;;;;;;;0.00;0.00;;;;;;;;5092638;27;45519;-75
2022/07/03 01:59:32;;;;;;;;;1.00;0.00;;;;;;;;5094829;27;46189;-76
2022/07/03 02:01:57;;;;;;;;;0.00;0.00;;;;;;;;5103876;27;45666;-76
2022/07/03 02:04:22;;;;;;;;;1.75;0.75;;;;;;;;5093966;27;45513;-76
2022/07/03 02:06:53;;;;;;;;;0.00;0.00;;;;;;;;5092473;27;45341;-76
2022/07/03 02:09:22;;;;;;;;;0.00;0.00;;;;;;;;5092746;27;45468;-76
2022/07/03 02:11:47;;;;;;;;;3.00;1.00;;;;;;;;5092753;27;45535;-76
2022/07/03 02:14:36;;;;;;;;;1.00;1.00;;;;;;;;5093548;27;46315;-76
2022/07/03 02:17:02;;;;;;;;;0.00;0.00;;;;;;;;5093107;27;45260;-76
2022/07/03 02:19:34;;;;;;;;;0.67;0.67;;;;;;;;5094244;27;45460;-74
2022/07/03 02:22:02;;;;;;;;;0.00;0.00;;;;;;;;5092456;27;45440;-75
2022/07/03 02:24:30;;;;;;;;;0.00;0.00;;;;;;;;5094353;27;45542;-75
2022/07/03 02:27:05;;;;;;;;;0.33;0.00;;;;;;;;5092612;27;45478;-75
2022/07/03 02:29:32;;;;;;;;;1.00;1.00;;;;;;;;5093245;27;45718;-76
2022/07/03 02:31:59;;;;;;;;;1.00;1.00;;;;;;;;5094647;27;45488;-75
2022/07/03 02:34:25;;;;;;;;;2.00;1.00;;;;;;;;5093362;27;46550;-75
2022/07/03 02:36:51;;;;;;;;;0.33;0.33;;;;;;;;5093224;27;45496;-75
2022/07/03 02:39:40;;;;;;;;;0.00;0.00;;;;;;;;5092572;27;45335;-75
2022/07/03 02:42:10;;;;;;;;;2.00;0.00;;;;;;;;5092381;27;45483;-75
2022/07/03 02:44:42;;;;;;;;;0.33;0.33;;;;;;;;5091936;27;45378;-75
2022/07/03 02:47:10;;;;;;;;;0.67;0.67;;;;;;;;5091839;27;46133;-75
2022/07/03 02:49:42;;;;;;;;;0.00;0.00;;;;;;;;5095259;27;45291;-75
2022/07/03 02:52:26;;;;;;;;;1.67;0.33;;;;;;;;5093890;27;45562;-75
2022/07/03 02:54:53;;;;;;;;;0.00;0.00;;;;;;;;5093470;27;45549;-76
2022/07/03 02:57:22;;;;;;;;;0.67;0.67;;;;;;;;5091834;27;45409;-75
2022/07/03 02:59:58;;;;;;;;;0.00;0.00;;;;;;;;5096508;27;45455;-75
2022/07/03 03:02:29;;;;;;;;;0.00;0.00;;;;;;;;5085456;27;45291;-75
2022/07/03 03:04:59;;;;;;;;;0.00;0.00;;;;;;;;5094045;27;45629;-75
2022/07/03 03:07:43;;;;;;;;;0.00;0.00;;;;;;;;5093177;27;45325;-76
2022/07/03 03:10:08;;;;;;;;;1.00;1.00;;;;;;;;5092815;27;45232;-76
2022/07/03 03:12:36;;;;;;;;;0.00;0.00;;;;;;;;5091514;27;45262;-76
2022/07/03 03:15:03;;;;;;;;;1.00;1.00;;;;;;;;5091763;27;46191;-76
2022/07/03 03:17:34;;;;;;;;;1.00;1.00;;;;;;;;5093469;27;45424;-75
2022/07/03 03:20:00;;;;;;;;;0.00;0.00;;;;;;;;5093730;27;45322;-75
2022/07/03 03:22:38;;;;;;;;;0.00;0.00;;;;;;;;5091772;27;45303;-74
2022/07/03 03:25:03;;;;;;;;;0.00;0.00;;;;;;;;5091450;27;46112;-75
2022/07/03 03:27:28;;;;;;;;;0.00;0.00;;;;;;;;5091847;27;45346;-76
2022/07/03 03:29:54;;;;;;;;;0.00;0.00;;;;;;;;5091870;27;45362;-74
2022/07/03 03:32:20;;;;;;;;;0.00;0.00;;;;;;;;5093516;27;45385;-75
2022/07/03 03:34:45;;;;;;;;;0.00;0.00;;;;;;;;5095185;27;45476;-76
2022/07/03 03:37:10;;;;;;;;;0.00;0.00;;;;;;;;5093301;27;45388;-75
2022/07/03 03:39:36;;;;;;;;;1.00;1.00;;;;;;;;5091625;27;45400;-75
2022/07/03 03:42:02;;;;;;;;;0.00;0.00;;;;;;;;5093620;27;45424;-75
2022/07/03 03:44:27;;;;;;;;;0.00;0.00;;;;;;;;5091678;27;46512;-76
2022/07/03 03:46:54;;;;;;;;;3.00;0.00;;;;;;;;5097735;27;45465;-76
2022/07/03 03:49:19;;;;;;;;;0.00;0.00;;;;;;;;5097429;27;45470;-75
2022/07/03 03:51:45;;;;;;;;;0.00;0.00;;;;;;;;5094425;27;45404;-75
2022/07/03 03:54:10;;;;;;;;;0.00;0.00;;;;;;;;5095042;27;46513;-75
2022/07/03 03:56:35;;;;;;;;;1.00;1.00;;;;;;;;5096319;27;45538;-75
2022/07/03 03:59:00;;;;;;;;;1.00;0.00;;;;;;;;5097556;27;45346;-75
2022/07/03 04:01:27;;;;;;;;;0.33;0.33;;;;;;;;5104178;27;45597;-75
2022/07/03 04:03:52;;;;;;;;;1.00;1.00;;;;;;;;5096667;27;48629;-75
2022/07/03 04:06:18;;;;;;;;;0.00;0.00;;;;;;;;5094609;27;45519;-75
2022/07/03 04:08:43;;;;;;;;;0.00;0.00;;;;;;;;5094958;27;45318;-76
2022/07/03 04:11:09;;;;;;;;;0.67;0.67;;;;;;;;5095765;27;45382;-75
2022/07/03 04:13:34;;;;;;;;;1.00;1.00;;;;;;;;5097203;27;46250;-76
2022/07/03 04:15:59;;;;;;;;;0.00;0.00;;;;;;;;5094345;27;46857;-75
2022/07/03 04:18:25;;;;;;;;;0.00;0.00;;;;;;;;5094351;27;45365;-75
2022/07/03 04:20:50;;;;;;;;;1.67;0.00;;;;;;;;5094193;27;45441;-75
2022/07/03 04:23:15;;;;;;;;;0.67;0.67;;;;;;;;5096347;27;46380;-75
2022/07/03 04:25:40;;;;;;;;;0.00;0.00;;;;;;;;5098016;27;45357;-75
2022/07/03 04:28:05;;;;;;;;;1.00;1.00;;;;;;;;5094203;27;45563;-74
2022/07/03 04:30:31;;;;;;;;;0.33;0.00;;;;;;;;5093904;27;45564;-75
2022/07/03 04:32:56;;;;;;;;;0.00;0.00;;;;;;;;5096976;27;45653;-75
2022/07/03 04:35:21;;;;;;;;;0.00;0.00;;;;;;;;5093978;27;45432;-75
2022/07/03 04:37:46;;;;;;;;;0.00;0.00;;;;;;;;5097922;27;45512;-75
2022/07/03 04:40:12;;;;;;;;;0.00;0.00;;;;;;;;5094521;27;45350;-75
2022/07/03 04:42:38;;;;;;;;;0.00;0.00;;;;;;;;5094772;27;45433;-75
2022/07/03 04:45:03;;;;;;;;;0.33;0.33;;;;;;;;5093801;27;45537;-75
2022/07/03 04:47:28;;;;;;;;;1.00;1.00;;;;;;;;5093833;27;45717;-74
2022/07/03 04:49:54;;;;;;;;;0.67;0.67;;;;;;;;5097116;27;45263;-75
2022/07/03 04:52:19;;;;;;;;;0.00;0.00;;;;;;;;5096256;27;46148;-75
2022/07/03 04:54:44;;;;;;;;;0.33;0.33;;;;;;;;5093744;27;45283;-75
2022/07/03 04:57:09;;;;;;;;;0.00;0.00;;;;;;;;5093021;27;45610;-74
2022/07/03 04:59:35;;;;;;;;;0.00;0.00;;;;;;;;5096132;27;45415;-74
2022/07/03 05:02:00;;;;;;;;;2.00;0.00;;;;;;;;5104481;27;46664;-75
2022/07/03 05:04:25;;;;;;;;;1.33;0.00;;;;;;;;5095481;27;45705;-75
2022/07/03 05:06:51;;;;;;;;;0.67;0.00;;;;;;;;5094333;27;45487;-74
2022/07/03 05:09:16;;;;;;;;;0.00;0.00;;;;;;;;5093570;27;45494;-75
2022/07/03 05:11:41;;;;;;;;;1.00;1.00;;;;;;;;5093695;27;45623;-75
2022/07/03 05:14:07;;;;;;;;;0.00;0.00;;;;;;;;5095249;27;45465;-75
2022/07/03 05:16:33;;;;;;;;;0.00;0.00;;;;;;;;5095365;27;45831;-75
2022/07/03 05:18:58;;;;;;;;;0.00;0.00;;;;;;;;5093573;27;45478;-74
2022/07/03 05:21:23;;;;;;;;;0.00;0.00;;;;;;;;5093721;27;46536;-75
2022/07/03 05:23:48;;;;;;;;;0.00;0.00;;;;;;;;5093339;27;45400;-75
2022/07/03 05:26:14;;;;;;;;;1.00;1.00;;;;;;;;5094366;27;45440;-75
2022/07/03 05:28:39;;;;;;;;;0.00;0.00;;;;;;;;5096729;27;45503;-75
2022/07/03 05:31:04;;;;;;;;;1.00;1.00;;;;;;;;5094832;27;45711;-76
2022/07/03 05:33:30;;;;;;;;;0.00;0.00;;;;;;;;5093217;27;45343;-76
2022/07/03 05:35:56;;;;;;;;;0.00;0.00;;;;;;;;5093529;27;45438;-75
2022/07/03 05:41:05;;;;;;;;;0.00;0.00;;;;;;;;5095126;27;45840;-76
2022/07/03 05:43:30;;;;;;;;;0.00;0.00;;;;;;;;5095111;27;45310;-75
2022/07/03 05:45:55;;;;;;;;;1.33;1.33;;;;;;;;5092678;27;45432;-75
2022/07/03 05:48:20;;;;;;;;;0.00;0.00;;;;;;;;5093322;27;45405;-76
2022/07/03 05:50:46;;;;;;;;;0.00;0.00;;;;;;;;5092907;27;45274;-75
2022/07/03 05:53:11;;;;;;;;;0.00;0.00;;;;;;;;5093867;27;45341;-76
2022/07/03 05:55:36;;;;;;;;;0.67;0.00;;;;;;;;5095899;27;45420;-75
2022/07/03 05:58:01;;;;;;;;;0.00;0.00;;;;;;;;5092918;27;45353;-75
2022/07/03 06:00:28;;;;;;;;;1.00;1.00;;;;;;;;5094423;27;46369;-75
2022/07/03 06:02:53;;;;;;;;;0.00;0.00;;;;;;;;5101275;27;45451;-76
2022/07/03 06:05:18;;;;;;;;;0.00;0.00;;;;;;;;5094684;27;45593;-75
2022/07/03 06:07:44;;;;;;;;;1.00;0.00;;;;;;;;5096266;27;45227;-76
2022/07/03 06:10:09;;;;;;;;;0.00;0.00;;;;;;;;5093006;27;45433;-75
2022/07/03 06:12:34;;;;;;;;;0.00;0.00;;;;;;;;5092614;27;45517;-76
2022/07/03 06:14:59;;;;;;;;;1.00;1.00;;;;;;;;5092649;27;45448;-76
2022/07/03 06:17:24;;;;;;;;;0.00;0.00;;;;;;;;5092874;27;45395;-75
2022/07/03 06:19:50;;;;;;;;;0.33;0.33;;;;;;;;5095751;27;46349;-75
2022/07/03 06:22:15;;;;;;;;;0.00;0.00;;;;;;;;5093049;27;45466;-75
2022/07/03 06:24:40;;;;;;;;;0.00;0.00;;;;;;;;5092295;27;45581;-75
2022/07/03 06:27:05;;;;;;;;;1.00;1.00;;;;;;;;5092258;27;45409;-75
2022/07/03 06:29:30;;;;;;;;;0.00;0.00;;;;;;;;5092277;27;46297;-75
2022/07/03 06:31:56;;;;;;;;;0.00;0.00;;;;;;;;5094916;27;45349;-76
2022/07/03 06:34:21;;;;;;;;;0.00;0.00;;;;;;;;5093968;27;45438;-75
2022/07/03 06:36:46;;;;;;;;;0.00;0.00;;;;;;;;5094163;27;45492;-75
2022/07/03 06:39:11;;;;;;;;;0.00;0.00;;;;;;;;5093627;27;46149;-75
2022/07/03 06:41:36;;;;;;;;;0.00;0.00;;;;;;;;5092018;27;45319;-75
2022/07/03 06:44:02;;;;;;;;;0.33;0.00;;;;;;;;5094099;27;45396;-75
2022/07/03 06:46:27;;;;;;;;;1.00;1.00;;;;;;;;5095810;27;45527;-75
2022/07/03 06:48:52;;;;;;;;;1.00;1.00;;;;;;;;5092085;27;46017;-76
2022/07/03 06:51:17;;;;;;;;;0.00;0.00;;;;;;;;5092341;27;45520;-75
2022/07/03 06:53:43;;;;;;;;;0.00;0.00;;;;;;;;5092347;27;45322;-75
2022/07/03 06:56:08;;;;;;;;;0.00;0.00;;;;;;;;5094521;27;45405;-75
2022/07/03 06:58:33;;;;;;;;;0.00;0.00;;;;;;;;5095227;27;45551;-76
2022/07/03 07:00:58;;;;;;;;;0.67;0.67;;;;;;;;5095173;27;45483;-75
2022/07/03 07:03:23;;;;;;;;;0.00;0.00;;;;;;;;5100496;27;45392;-76
2022/07/03 07:05:48;;;;;;;;;0.00;0.00;;;;;;;;5091658;27;45531;-75
2022/07/03 07:08:14;;;;;;;;;0.00;0.00;;;;;;;;5093443;27;46481;-76
2022/07/03 07:10:39;;;;;;;;;0.00;0.00;;;;;;;;5095530;27;45300;-75
2022/07/03 07:13:04;;;;;;;;;0.33;0.00;;;;;;;;5091682;27;45468;-76
2022/07/03 07:15:29;;;;;;;;;0.00;0.00;;;;;;;;5092101;27;46054;-75
2022/07/03 07:17:55;;;;;;;;;0.00;0.00;;;;;;;;5091966;27;46495;-75
2022/07/03 07:20:20;;;;;;;;;0.00;0.00;;;;;;;;5093435;27;45590;-75
2022/07/03 07:22:45;;;;;;;;;0.33;0.33;;;;;;;;5099535;27;45225;-75
2022/07/03 07:25:10;;;;;;;;;0.00;0.00;;;;;;;;5095395;27;45211;-76
2022/07/03 07:27:35;;;;;;;;;0.00;0.00;;;;;;;;5095092;27;49080;-75
2022/07/03 07:30:01;;;;;;;;;0.00;0.00;;;;;;;;5095509;27;45563;-75
2022/07/03 07:32:26;;;;;;;;;0.00;0.00;;;;;;;;5095618;27;45358;-76
2022/07/03 07:34:51;;;;;;;;;0.00;0.00;;;;;;;;5098731;27;45490;-75
2022/07/03 07:37:16;;;;;;;;;0.33;0.00;;;;;;;;5095620;27;45428;-75
2022/07/03 07:39:41;;;;;;;;;0.00;0.00;;;;;;;;5094785;27;45452;-75
2022/07/03 07:42:07;;;;;;;;;1.00;0.00;;;;;;;;5096406;27;45220;-75
2022/07/03 07:44:32;;;;;;;;;0.00;0.00;;;;;;;;5094786;27;45596;-76
2022/07/03 07:46:57;;;;;;;;;0.00;0.00;;;;;;;;5097800;27;46442;-76
2022/07/03 07:49:22;;;;;;;;;0.00;0.00;;;;;;;;5097845;27;45480;-76
2022/07/03 07:51:48;;;;;;;;;0.00;0.00;;;;;;;;5095644;27;45324;-75
2022/07/03 07:54:13;;;;;;;;;0.00;0.00;;;;;;;;5095306;27;45373;-76
2022/07/03 07:56:38;;;;;;;;;0.00;0.00;;;;;;;;5094399;27;46335;-75
2022/07/03 07:59:03;;;;;;;;;0.00;0.00;;;;;;;;5095266;27;45510;-76
2022/07/03 08:06:56;;;;;;;;;0.00;0.00;;;;;;;;5094522;27;45701;-75
2022/07/03 08:09:21;;;;;;;;;0.00;0.00;;;;;;;;5096196;27;45577;-75
2022/07/03 08:11:46;;;;;;;;;0.00;0.00;;;;;;;;5094570;27;45482;-76
2022/07/03 08:14:11;;;;;;;;;0.67;0.00;;;;;;;;5097242;27;45416;-76
2022/07/03 08:16:40;;;;;;;;;0.00;0.00;;;;;;;;5098103;27;45460;-75
2022/07/03 08:19:06;;;;;;;;;0.00;0.00;;;;;;;;5094314;27;45437;-75
2022/07/03 08:21:32;;;;;;;;;0.00;0.00;;;;;;;;5094301;27;45400;-76
2022/07/03 08:23:57;;;;;;;;;0.00;0.00;;;;;;;;5094101;27;45456;-76
2022/07/03 08:26:22;;;;;;;;;0.00;0.00;;;;;;;;5094395;27;45488;-76
2022/07/03 08:28:48;;;;;;;;;0.00;0.00;;;;;;;;5098369;27;45692;-75
2022/07/03 08:31:13;;;;;;;;;0.00;0.00;;;;;;;;5094137;27;46051;-76
2022/07/03 08:33:38;;;;;;;;;0.00;0.00;;;;;;;;5094273;27;45401;-76
2022/07/03 08:36:04;;;;;;;;;1.00;1.00;;;;;;;;5095565;27;45368;-75
2022/07/03 08:38:33;;;;;;;;;0.00;0.00;;;;;;;;5093521;27;45383;-75
2022/07/03 08:40:59;;;;;;;;;0.00;0.00;;;;;;;;5096570;27;45393;-75
2022/07/03 08:43:24;;;;;;;;;0.00;0.00;;;;;;;;5095480;27;45309;-75
2022/07/03 08:45:49;;;;;;;;;0.00;0.00;;;;;;;;5094003;27;45418;-75
2022/07/03 08:48:16;;;;;;;;;1.67;0.00;;;;;;;;5096167;27;45419;-76
2022/07/03 08:50:41;;;;;;;;;1.00;0.00;;;;;;;;5094162;27;45416;-76
2022/07/03 08:53:06;;;;;;;;;0.00;0.00;;;;;;;;5095580;27;45339;-76
2022/07/03 08:55:32;;;;;;;;;0.00;0.00;;;;;;;;5097517;27;45338;-76
2022/07/03 08:57:58;;;;;;;;;0.33;0.33;;;;;;;;5093647;27;45361;-76
2022/07/03 09:00:23;;;;;;;;;0.00;0.00;;;;;;;;5095149;27;45382;-76
2022/07/03 09:02:49;;;;;;;;;0.00;0.00;;;;;;;;5102470;27;45401;-76
2022/07/03 09:05:15;;;;;;;;;0.00;0.00;;;;;;;;5095063;27;46511;-76
2022/07/03 09:07:41;;;;;;;;;0.00;0.00;;;;;;;;5097161;27;45448;-76
2022/07/03 09:10:08;;;;;;;;;0.00;0.00;;;;;;;;5093858;27;45489;-75
2022/07/03 09:12:33;;;;;;;;;0.00;0.00;;;;;;;;5093501;27;45604;-76
2022/07/03 09:14:59;;;;;;;;;0.00;0.00;;;;;;;;5093288;27;46419;-75
2022/07/03 09:17:24;;;;;;;;;0.00;0.00;;;;;;;;5093625;27;45380;-75
2022/07/03 09:19:50;;;;;;;;;2.00;0.00;;;;;;;;5096755;27;45522;-75
2022/07/03 09:22:31;;;;;;;;;0.00;0.00;;;;;;;;5093665;27;45434;-76
2022/07/03 09:25:04;;;;;;;;;0.00;0.00;;;;;;;;5093130;27;46338;-76
2022/07/03 09:27:29;;;;;;;;;0.00;0.00;;;;;;;;5093361;27;45435;-76
2022/07/03 09:29:58;;;;;;;;;0.00;0.00;;;;;;;;5093208;27;46888;-75
2022/07/03 09:32:23;;;;;;;;;0.00;0.00;;;;;;;;5092997;27;48459;-75
2022/07/03 09:34:49;;;;;;;;;0.67;0.00;;;;;;;;5096831;27;46345;-75
2022/07/03 09:37:23;;;;;;;;;0.00;0.00;;;;;;;;5092996;27;45483;-75
2022/07/03 09:39:55;;;;;;;;;0.00;0.00;;;;;;;;5093000;27;45389;-75
2022/07/03 09:42:20;;;;;;;;;0.00;0.00;;;;;;;;5092571;27;45357;-76
2022/07/03 09:44:46;;;;;;;;;0.00;0.00;;;;;;;;5093046;27;45431;-76
2022/07/03 09:47:15;;;;;;;;;0.00;0.00;;;;;;;;5094176;27;45370;-75
2022/07/03 09:49:50;;;;;;;;;1.00;1.00;;;;;;;;5096430;27;45380;-75
2022/07/03 09:52:31;;;;;;;;;0.00;0.00;;;;;;;;5094592;27;45655;-75
2022/07/03 09:54:58;;;;;;;;;0.00;0.00;;;;;;;;5094152;27;45623;-75
2022/07/03 09:57:23;;;;;;;;;0.00;0.00;;;;;;;;5092359;27;45451;-75
2022/07/03 09:59:48;;;;;;;;;0.00;0.00;;;;;;;;5095057;27;45369;-75
2022/07/03 10:02:14;;;;;;;;;0.00;0.00;;;;;;;;5102858;27;45512;-75
2022/07/03 10:04:39;;;;;;;;;0.00;0.00;;;;;;;;5095389;27;46399;-76
2022/07/03 10:07:04;;;;;;;;;0.00;0.00;;;;;;;;5092350;27;45353;-75
2022/07/03 10:09:29;;;;;;;;;0.00;0.00;;;;;;;;5093303;27;45285;-75
2022/07/03 10:11:55;;;;;;;;;0.67;0.67;;;;;;;;5092766;27;45575;-76
2022/07/03 10:14:22;;;;;;;;;1.00;1.00;;;;;;;;5094678;27;45575;-76
2022/07/03 10:16:47;;;;;;;;;0.00;0.00;;;;;;;;5096554;27;45413;-75
2022/07/03 10:19:23;;;;;;;;;0.33;0.33;;;;;;;;5092383;27;45486;-75
2022/07/03 10:21:55;;;;;;;;;0.00;0.00;;;;;;;;5091907;27;45587;-76
2022/07/03 10:24:24;;;;;;;;;1.33;0.33;;;;;;;;5092550;27;46404;-75
2022/07/03 10:26:53;;;;;;;;;0.00;0.00;;;;;;;;5094803;27;45491;-75
2022/07/03 10:29:20;;;;;;;;;0.00;0.00;;;;;;;;5087800;27;45451;-75
2022/07/03 10:31:46;;;;;;;;;0.00;0.00;;;;;;;;5091702;27;45365;-76
2022/07/03 10:34:15;;;;;;;;;0.00;0.00;;;;;;;;5092264;27;46217;-76
2022/07/03 10:36:40;;;;;;;;;0.00;0.00;;;;;;;;5091573;27;45575;-75
2022/07/03 10:39:06;;;;;;;;;1.33;0.00;;;;;;;;5092814;27;45590;-75
2022/07/03 10:47:05;;;;;;;;;2.00;0.00;;;;;;;;5094220;27;45419;-76
2022/07/03 10:49:31;;;;;;;;;1.00;1.00;;;;;;;;5093983;27;45433;-75
2022/07/03 10:51:57;;;;;;;;;0.33;0.33;;;;;;;;5092244;27;45742;-76
2022/07/03 10:54:25;;;;;;;;;1.00;1.00;;;;;;;;5094375;27;46333;-76
2022/07/03 10:57:02;;;;;;;;;0.00;0.00;;;;;;;;5095611;27;45535;-75
2022/07/03 10:59:45;;;;;;;;;0.67;0.67;;;;;;;;5093936;27;45552;-76
2022/07/03 11:02:33;;;;;;;;;0.00;0.00;;;;;;;;5104851;27;45304;-76
2022/07/03 11:04:59;;;;;;;;;1.00;0.00;;;;;;;;5089468;27;45664;-76
2022/07/03 11:07:24;;;;;;;;;0.00;0.00;;;;;;;;5096884;27;45592;-76
2022/07/03 11:10:08;;;;;;;;;0.00;0.00;;;;;;;;5096922;27;45711;-76
2022/07/03 11:12:52;;;;;;;;;0.67;0.67;;;;;;;;5097586;27;45457;-76
2022/07/03 11:15:35;;;;;;;;;0.67;0.67;;;;;;;;5095246;27;48502;-76
2022/07/03 11:18:06;;;;;;;;;1.33;0.00;;;;;;;;5095122;27;45294;-75
2022/07/03 11:20:32;;;;;;;;;2.00;0.00;;;;;;;;5095395;27;45417;-75
2022/07/03 11:23:02;;;;;;;;;0.00;0.00;;;;;;;;5098489;27;45436;-76
2022/07/03 11:25:37;;;;;;;;;0.00;0.00;;;;;;;;5098628;27;46531;-76
2022/07/03 11:28:03;;;;;;;;;0.33;0.33;;;;;;;;5095287;27;45521;-75
2022/07/03 11:30:29;;;;;;;;;0.00;0.00;;;;;;;;5095503;27;45218;-75
2022/07/03 11:33:00;;;;;;;;;0.00;0.00;;;;;;;;5094698;27;45541;-75
2022/07/03 11:35:47;;;;;;;;;0.00;0.00;;;;;;;;5097753;27;45908;-75
2022/07/03 11:38:13;;;;;;;;;1.00;0.00;;;;;;;;5096185;27;45340;-75
2022/07/03 11:40:41;;;;;;;;;1.00;1.00;;;;;;;;5097753;27;45388;-76
2022/07/03 11:43:06;;;;;;;;;0.00;0.00;;;;;;;;5095121;27;45562;-75
2022/07/03 11:45:31;;;;;;;;;1.00;1.00;;;;;;;;5095140;27;46091;-76
2022/07/03 11:47:56;;;;;;;;;0.00;0.00;;;;;;;;5094740;27;45314;-76
2022/07/03 11:50:35;;;;;;;;;2.00;1.00;;;;;;;;5095047;27;45331;-76
2022/07/03 11:53:14;;;;;;;;;2.00;0.00;;;;;;;;5097399;27;45521;-76
2022/07/03 11:55:46;;;;;;;;;0.00;0.00;;;;;;;;5097383;27;46878;-76
2022/07/03 11:58:11;;;;;;;;;0.00;0.00;;;;;;;;5094204;27;45480;-76
2022/07/03 12:00:37;;;;;;;;;0.00;0.00;;;;;;;;5094798;27;45493;-76
2022/07/03 12:03:03;;;;;;;;;0.00;0.00;;;;;;;;5103747;27;45434;-76
2022/07/03 12:05:28;;;;;;;;;0.00;0.00;;;;;;;;5094254;27;45682;-76
2022/07/03 12:08:03;;;;;;;;;0.00;0.00;;;;;;;;5097539;27;45302;-76
2022/07/03 12:10:39;;;;;;;;;0.00;0.00;;;;;;;;5098207;27;45460;-75
2022/07/03 12:13:04;;;;;;;;;0.33;0.33;;;;;;;;5094744;27;45446;-76
2022/07/03 12:15:29;;;;;;;;;1.00;0.00;;;;;;;;5096401;27;46008;-76
2022/07/03 12:17:54;;;;;;;;;0.00;0.00;;;;;;;;5096144;27;45370;-75
2022/07/03 12:20:19;;;;;;;;;0.00;0.00;;;;;;;;5094770;27;45754;-75
2022/07/03 12:22:45;;;;;;;;;1.00;1.00;;;;;;;;5098235;27;45395;-75
2022/07/03 12:25:12;;;;;;;;;0.33;0.33;;;;;;;;5096728;27;45493;-75
2022/07/03 12:27:38;;;;;;;;;1.00;1.00;;;;;;;;5094599;27;45493;-76
2022/07/03 12:30:04;;;;;;;;;0.00;0.00;;;;;;;;5094480;27;45453;-75
2022/07/03 12:32:30;;;;;;;;;0.00;0.00;;;;;;;;5093862;27;45913;-75
2022/07/03 12:34:55;;;;;;;;;0.67;0.67;;;;;;;;5097173;27;45499;-75
2022/07/03 12:37:40;;;;;;;;;0.00;0.00;;;;;;;;5095444;27;45290;-75
2022/07/03 12:40:07;;;;;;;;;0.00;0.00;;;;;;;;5094353;27;45565;-75
2022/07/03 12:42:41;;;;;;;;;0.00;0.00;;;;;;;;5094146;27;45281;-76
2022/07/03 12:45:10;;;;;;;;;0.00;0.00;;;;;;;;5093756;27;46280;-75
2022/07/03 12:47:35;;;;;;;;;0.00;0.00;;;;;;;;5094281;27;45618;-75
2022/07/03 12:50:03;;;;;;;;;1.00;1.00;;;;;;;;5096595;27;45363;-75
2022/07/03 12:52:29;;;;;;;;;0.33;0.33;;;;;;;;5097436;27;45540;-75
2022/07/03 12:54:54;;;;;;;;;0.00;0.00;;;;;;;;5095225;27;46486;-75
2022/07/03 13:00:05;;;;;;;;;0.67;0.67;;;;;;;;5092585;27;45365;-75
2022/07/03 13:02:31;;;;;;;;;0.00;0.00;;;;;;;;5102817;27;45534;-75
2022/07/03 13:04:58;;;;;;;;;0.33;0.00;;;;;;;;5096588;27;45642;-76
2022/07/03 13:07:27;;;;;;;;;0.00;0.00;;;;;;;;5096349;27;45464;-75
2022/07/03 13:09:53;;;;;;;;;1.00;1.00;;;;;;;;5093447;27;45436;-75
2022/07/03 13:12:24;;;;;;;;;0.00;0.00;;;;;;;;5093708;27;45382;-76
2022/07/03 13:14:56;;;;;;;;;0.00;0.00;;;;;;;;5095003;27;45408;-75
2022/07/03 13:17:21;;;;;;;;;2.00;0.00;;;;;;;;5087275;27;45271;-75
2022/07/03 13:19:47;;;;;;;;;0.00;0.00;;;;;;;;5097316;27;45250;-75
2022/07/03 13:22:12;;;;;;;;;1.00;1.00;;;;;;;;5093811;27;45601;-75
2022/07/03 13:24:37;;;;;;;;;0.33;0.33;;;;;;;;5093308;27;46326;-75
2022/07/03 13:27:02;;;;;;;;;1.00;1.00;;;;;;;;5093721;27;45208;-75
2022/07/03 13:29:28;;;;;;;;;0.33;0.00;;;;;;;;5093414;27;45374;-75
2022/07/03 13:31:53;;;;;;;;;0.00;0.00;;;;;;;;5097204;27;45216;-75
2022/07/03 13:34:18;;;;;;;;;0.00;0.00;;;;;;;;5093962;27;46415;-75
2022/07/03 13:36:44;;;;;;;;;0.00;0.00;;;;;;;;5093153;27;45558;-75
2022/07/03 13:39:09;;;;;;;;;0.00;0.00;;;;;;;;5093576;27;45518;-75
2022/07/03 13:41:35;;;;;;;;;0.67;0.67;;;;;;;;5093662;27;45378;-75
2022/07/03 13:44:00;;;;;;;;;1.00;0.00;;;;;;;;5095402;27;45599;-76
2022/07/03 13:46:25;;;;;;;;;0.67;0.67;;;;;;;;5094548;27;45426;-76
2022/07/03 13:48:51;;;;;;;;;0.00;0.00;;;;;;;;5094556;27;45430;-76
2022/07/03 13:51:16;;;;;;;;;0.00;0.00;;;;;;;;5093107;27;45465;-75
2022/07/03 13:53:42;;;;;;;;;0.67;0.67;;;;;;;;5093146;27;45499;-76
2022/07/03 13:56:07;;;;;;;;;1.67;0.00;;;;;;;;5095067;27;45603;-75
2022/07/03 13:58:32;;;;;;;;;0.00;0.00;;;;;;;;5094307;27;45524;-75
2022/07/03 14:00:58;;;;;;;;;0.00;0.00;;;;;;;;5094587;27;45357;-76
2022/07/03 14:03:24;;;;;;;;;0.00;0.00;;;;;;;;5100116;27;46208;-75
2022/07/03 14:05:51;;;;;;;;;0.67;0.00;;;;;;;;5095165;27;45515;-75
2022/07/03 14:08:16;;;;;;;;;2.00;0.00;;;;;;;;5093829;27;45439;-76
2022/07/03 14:10:41;;;;;;;;;1.00;1.00;;;;;;;;5095806;27;45348;-76
2022/07/03 14:13:06;;;;;;;;;0.00;0.00;;;;;;;;5092250;27;46460;-76
2022/07/03 14:15:33;;;;;;;;;1.00;1.00;;;;;;;;5092728;27;45523;-76
2022/07/03 14:17:59;;;;;;;;;0.00;0.00;;;;;;;;5093146;27;45414;-75
2022/07/03 14:20:25;;;;;;;;;0.00;0.00;;;;;;;;5092518;27;45382;-75
2022/07/03 14:22:50;;;;;;;;;0.67;0.67;;;;;;;;5096228;27;46495;-75
2022/07/03 14:25:16;;;;;;;;;1.67;1.00;;;;;;;;5092542;27;45433;-75
2022/07/03 14:33:09;;;;;;;;;1.00;1.00;;;;;;;;5092443;27;45346;-76
2022/07/03 14:35:35;;;;;;;;;0.33;0.33;;;;;;;;5092433;27;45330;-75
2022/07/03 14:38:00;;;;;;;;;0.00;0.00;;;;;;;;5095180;27;45461;-75
2022/07/03 14:40:25;;;;;;;;;0.00;0.00;;;;;;;;5093696;27;45376;-75
2022/07/03 14:42:50;;;;;;;;;0.00;0.00;;;;;;;;5092066;27;45445;-75
2022/07/03 14:45:16;;;;;;;;;0.00;0.00;;;;;;;;5092431;27;45433;-76
2022/07/03 14:47:41;;;;;;;;;0.00;0.00;;;;;;;;5092929;27;45385;-75
2022/07/03 14:50:07;;;;;;;;;1.00;0.00;;;;;;;;5094716;27;45356;-76
2022/07/03 14:52:32;;;;;;;;;0.00;0.00;;;;;;;;5093854;27;46242;-76
2022/07/03 14:54:57;;;;;;;;;1.00;1.00;;;;;;;;5091677;27;45445;-75
2022/07/03 14:57:34;;;;;;;;;1.33;0.00;;;;;;;;5091890;27;45438;-75
2022/07/03 15:00:04;;;;;;;;;0.33;0.00;;;;;;;;5092001;27;45516;-76
2022/07/03 15:02:48;;;;;;;;;0.00;0.00;;;;;;;;5101138;27;45655;-76
2022/07/03 15:05:14;;;;;;;;;0.00;0.00;;;;;;;;5093858;27;45384;-76